createdAt,value
2019-05-11T00:00:49.189Z,71.04
2019-05-11T00:01:57.296Z,71.22
2019-05-11T00:03:05.973Z,71.11
2019-05-11T00:04:13.873Z,71.49
2019-05-11T00:05:22.484Z,71.44
2019-05-11T00:06:30.511Z,71.64
2019-05-11T00:07:38.994Z,71.31
2019-05-11T00:08:46.698Z,71.65
2019-05-11T00:09:58.069Z,71.25
2019-05-11T00:11:05.000Z,71.50
2019-05-11T00:12:13.381Z,71.51
2019-05-11T00:13:21.219Z,71.61
2019-05-11T00:14:29.370Z,71.37
2019-05-11T00:15:37.292Z,71.23
2019-05-11T00:16:45.770Z,71.22
2019-05-11T00:17:53.645Z,71.42
2019-05-11T00:19:02.015Z,71.93
2019-05-11T00:20:10.924Z,72.08
2019-05-11T00:21:19.378Z,72.32
2019-05-11T00:22:27.573Z,72.40
2019-05-11T00:23:36.018Z,72.58
2019-05-11T00:24:43.807Z,72.74
2019-05-11T00:25:52.229Z,72.66
2019-05-11T00:27:00.389Z,73.12
2019-05-11T00:28:08.857Z,73.16
2019-05-11T00:29:17.013Z,72.87
2019-05-11T00:30:25.479Z,72.75
2019-05-11T00:31:33.471Z,72.98
2019-05-11T00:32:41.947Z,73.25
2019-05-11T00:33:50.053Z,73.36
2019-05-11T00:34:58.526Z,73.55
2019-05-11T00:36:06.684Z,73.68
2019-05-11T00:37:15.432Z,73.34
2019-05-11T00:38:23.541Z,73.62
2019-05-11T00:39:32.040Z,73.55
2019-05-11T00:40:40.426Z,73.20
2019-05-11T00:41:48.801Z,73.04
2019-05-11T00:42:57.017Z,72.87
2019-05-11T00:44:05.648Z,73.05
2019-05-11T00:45:14.079Z,72.98
2019-05-11T00:46:22.317Z,72.60
2019-05-11T00:47:30.267Z,72.54
2019-05-11T00:48:38.487Z,72.81
2019-05-11T00:49:46.341Z,72.78
2019-05-11T00:50:54.655Z,73.00
2019-05-11T00:52:02.711Z,73.31
2019-05-11T00:53:11.019Z,73.41
2019-05-11T00:54:19.066Z,73.34
2019-05-11T00:55:27.798Z,73.55
2019-05-11T00:56:35.988Z,73.37
2019-05-11T00:57:44.414Z,73.45
2019-05-11T00:58:52.412Z,73.33
2019-05-11T01:00:00.970Z,73.24
2019-05-11T01:01:08.773Z,73.62
2019-05-11T01:02:17.393Z,73.70
2019-05-11T01:03:25.231Z,73.96
2019-05-11T01:04:33.637Z,73.92
2019-05-11T01:05:41.587Z,74.05
2019-05-11T01:06:50.123Z,74.30
2019-05-11T01:07:58.014Z,74.01
2019-05-11T01:09:08.310Z,73.86
2019-05-11T01:10:25.491Z,74.06
2019-05-11T01:11:26.575Z,74.26
2019-05-11T01:12:34.363Z,74.38
2019-05-11T01:13:42.955Z,74.39
2019-05-11T01:14:51.247Z,74.19
2019-05-11T01:15:59.597Z,74.29
2019-05-11T01:17:07.738Z,74.15
2019-05-11T01:18:16.284Z,74.34
2019-05-11T01:19:24.008Z,74.32
2019-05-11T01:20:32.440Z,74.25
2019-05-11T01:21:40.472Z,74.05
2019-05-11T01:22:48.792Z,74.12
2019-05-11T01:23:57.733Z,73.99
2019-05-11T01:25:07.270Z,74.04
2019-05-11T01:26:15.402Z,74.06
2019-05-11T01:27:23.572Z,73.86
2019-05-11T01:28:31.619Z,73.73
2019-05-11T01:29:39.919Z,73.57
2019-05-11T01:30:47.872Z,73.47
2019-05-11T01:31:56.354Z,73.55
2019-05-11T01:33:04.268Z,73.71
2019-05-11T01:34:12.614Z,73.88
2019-05-11T01:35:20.440Z,73.88
2019-05-11T01:36:28.753Z,74.01
2019-05-11T01:37:37.107Z,74.06
2019-05-11T01:38:45.724Z,74.01
2019-05-11T01:39:53.734Z,74.03
2019-05-11T01:41:02.325Z,73.93
2019-05-11T01:42:10.316Z,73.71
2019-05-11T01:43:18.680Z,73.78
2019-05-11T01:44:29.305Z,73.57
2019-05-11T01:45:38.192Z,73.67
2019-05-11T01:46:46.356Z,73.52
2019-05-11T01:47:54.970Z,73.45
2019-05-11T01:49:03.344Z,73.24
2019-05-11T01:50:12.176Z,73.04
2019-05-11T01:51:20.558Z,72.99
2019-05-11T01:52:28.948Z,72.92
2019-05-11T01:53:36.856Z,73.01
2019-05-11T01:54:45.405Z,72.90
2019-05-11T01:55:53.232Z,72.95
2019-05-11T01:57:01.553Z,72.90
2019-05-11T01:58:09.650Z,73.01
2019-05-11T01:59:18.052Z,73.15
2019-05-11T02:00:26.166Z,73.16
2019-05-11T02:01:34.269Z,73.41
2019-05-11T02:02:42.356Z,73.85
2019-05-11T02:03:50.711Z,74.07
2019-05-11T02:05:16.435Z,74.30
2019-05-11T02:06:24.452Z,74.13
2019-05-11T02:07:32.650Z,74.15
2019-05-11T02:08:40.914Z,74.24
2019-05-11T02:09:49.165Z,74.18
2019-05-11T02:10:57.238Z,74.18
2019-05-11T02:12:05.718Z,74.34
2019-05-11T02:13:13.680Z,74.58
2019-05-11T02:14:22.191Z,74.73
2019-05-11T02:15:30.225Z,74.64
2019-05-11T02:16:38.853Z,74.64
2019-05-11T02:17:46.969Z,74.51
2019-05-11T02:18:55.345Z,74.34
2019-05-11T02:20:03.655Z,74.18
2019-05-11T02:21:12.418Z,73.99
2019-05-11T02:22:20.466Z,73.95
2019-05-11T02:23:29.095Z,73.91
2019-05-11T02:24:37.040Z,73.85
2019-05-11T02:25:45.154Z,73.77
2019-05-11T02:26:53.461Z,73.52
2019-05-11T02:28:01.724Z,73.36
2019-05-11T02:29:09.820Z,73.28
2019-05-11T02:30:19.686Z,73.26
2019-05-11T02:31:29.023Z,73.08
2019-05-11T02:32:37.487Z,72.93
2019-05-11T02:33:45.380Z,72.94
2019-05-11T02:34:53.566Z,72.91
2019-05-11T02:36:01.562Z,72.81
2019-05-11T02:37:10.254Z,72.74
2019-05-11T02:38:18.114Z,72.84
2019-05-11T02:39:26.444Z,72.86
2019-05-11T02:40:34.709Z,72.84
2019-05-11T02:41:43.152Z,72.66
2019-05-11T02:42:51.216Z,72.96
2019-05-11T02:43:59.536Z,73.23
2019-05-11T02:45:08.804Z,73.25
2019-05-11T02:46:18.086Z,73.37
2019-05-11T02:47:26.062Z,73.53
2019-05-11T02:48:34.461Z,73.47
2019-05-11T02:49:42.591Z,73.43
2019-05-11T02:50:53.312Z,73.19
2019-05-11T02:52:02.029Z,73.23
2019-05-11T02:53:11.358Z,73.28
2019-05-11T02:54:20.216Z,73.29
2019-05-11T02:55:29.757Z,73.10
2019-05-11T02:56:37.499Z,73.06
2019-05-11T02:57:45.884Z,73.09
2019-05-11T02:58:53.776Z,73.13
2019-05-11T03:00:02.489Z,73.03
2019-05-11T03:01:11.032Z,73.03
2019-05-11T03:02:19.603Z,73.12
2019-05-11T03:03:27.493Z,73.38
2019-05-11T03:04:35.814Z,73.33
2019-05-11T03:05:44.290Z,73.16
2019-05-11T03:06:52.809Z,73.15
2019-05-11T03:08:00.821Z,73.09
2019-05-11T03:09:09.220Z,73.02
2019-05-11T03:10:17.514Z,72.97
2019-05-11T03:11:26.288Z,72.79
2019-05-11T03:12:34.247Z,72.74
2019-05-11T03:13:42.529Z,72.49
2019-05-11T03:14:50.471Z,72.47
2019-05-11T03:15:58.711Z,72.09
2019-05-11T03:17:10.990Z,71.83
2019-05-11T03:18:19.525Z,71.78
2019-05-11T03:19:27.714Z,71.44
2019-05-11T03:20:36.037Z,71.34
2019-05-11T03:21:43.983Z,71.15
2019-05-11T03:22:52.484Z,71.05
2019-05-11T03:24:00.612Z,70.90
2019-05-11T03:25:08.838Z,70.86
2019-05-11T03:26:16.866Z,70.74
2019-05-11T03:27:25.174Z,70.71
2019-05-11T03:28:33.311Z,70.95
2019-05-11T03:29:41.624Z,70.98
2019-05-11T03:30:49.855Z,71.05
2019-05-11T03:31:58.229Z,71.22
2019-05-11T03:33:06.181Z,71.39
2019-05-11T03:34:14.568Z,71.50
2019-05-11T03:35:22.712Z,71.61
2019-05-11T03:36:31.277Z,71.44
2019-05-11T03:37:39.308Z,71.49
2019-05-11T03:38:47.803Z,71.56
2019-05-11T03:39:55.774Z,71.69
2019-05-11T03:41:04.477Z,71.75
2019-05-11T03:42:15.007Z,71.86
2019-05-11T03:43:22.605Z,71.87
2019-05-11T03:44:30.759Z,71.78
2019-05-11T03:45:39.169Z,71.67
2019-05-11T03:46:47.301Z,71.63
2019-05-11T03:47:55.620Z,71.50
2019-05-11T03:49:03.416Z,71.55
2019-05-11T03:50:12.171Z,71.71
2019-05-11T03:51:19.980Z,71.76
2019-05-11T03:52:28.261Z,72.00
2019-05-11T03:53:36.272Z,72.02
2019-05-11T03:54:44.552Z,72.00
2019-05-11T03:55:52.676Z,72.14
2019-05-11T03:57:00.919Z,72.13
2019-05-11T03:58:09.136Z,72.22
2019-05-11T03:59:18.324Z,72.32
2019-05-11T04:00:26.596Z,72.18
2019-05-11T04:01:34.977Z,72.28
2019-05-11T04:02:42.877Z,72.16
2019-05-11T04:03:51.484Z,72.35
2019-05-11T04:04:59.457Z,72.39
2019-05-11T04:06:07.881Z,72.38
2019-05-11T04:07:16.303Z,72.57
2019-05-11T04:08:24.820Z,72.64
2019-05-11T04:09:32.988Z,72.75
2019-05-11T04:10:41.187Z,72.68
2019-05-11T04:11:49.328Z,72.74
2019-05-11T04:12:57.805Z,72.80
2019-05-11T04:14:05.875Z,72.62
2019-05-11T04:15:15.252Z,72.76
2019-05-11T04:16:23.475Z,72.67
2019-05-11T04:17:31.802Z,72.48
2019-05-11T04:18:40.151Z,72.27
2019-05-11T04:19:48.559Z,72.26
2019-05-11T04:20:56.653Z,72.43
2019-05-11T04:22:05.267Z,72.60
2019-05-11T04:23:13.559Z,72.61
2019-05-11T04:24:22.069Z,72.57
2019-05-11T04:25:30.164Z,72.72
2019-05-11T04:26:38.534Z,72.67
2019-05-11T04:27:48.420Z,72.52
2019-05-11T04:28:56.694Z,72.42
2019-05-11T04:30:09.506Z,72.04
2019-05-11T04:31:18.835Z,71.80
2019-05-11T04:32:26.679Z,71.69
2019-05-11T04:33:34.987Z,71.55
2019-05-11T04:34:45.000Z,71.47
2019-05-11T04:35:53.248Z,71.32
2019-05-11T04:37:01.068Z,71.29
2019-05-11T04:38:09.595Z,71.42
2019-05-11T04:39:17.750Z,71.26
2019-05-11T04:40:26.082Z,71.31
2019-05-11T04:41:34.402Z,71.56
2019-05-11T04:42:54.011Z,71.83
2019-05-11T04:43:52.625Z,71.94
2019-05-11T04:45:00.995Z,72.07
2019-05-11T04:46:09.584Z,72.22
2019-05-11T04:47:18.013Z,72.12
2019-05-11T04:48:26.046Z,72.17
2019-05-11T04:49:34.226Z,72.04
2019-05-11T04:50:42.228Z,72.25
2019-05-11T04:51:50.540Z,72.38
2019-05-11T04:52:58.595Z,72.30
2019-05-11T04:54:07.001Z,72.39
2019-05-11T04:55:15.314Z,72.30
2019-05-11T04:56:23.640Z,72.19
2019-05-11T04:57:31.483Z,72.04
2019-05-11T04:58:39.910Z,71.89
2019-05-11T04:59:47.881Z,71.68
2019-05-11T05:00:56.186Z,71.68
2019-05-11T05:02:04.069Z,71.56
2019-05-11T05:03:12.779Z,71.49
2019-05-11T05:04:20.795Z,71.34
2019-05-11T05:05:29.186Z,71.39
2019-05-11T05:06:38.941Z,71.29
2019-05-11T05:07:49.001Z,71.07
2019-05-11T05:08:58.087Z,71.04
2019-05-11T05:10:07.665Z,71.00
2019-05-11T05:11:15.861Z,70.66
2019-05-11T05:12:24.201Z,70.57
2019-05-11T05:13:32.210Z,70.26
2019-05-11T05:14:41.142Z,69.68
2019-05-11T05:15:49.922Z,69.69
2019-05-11T05:16:58.263Z,69.70
2019-05-11T05:18:06.229Z,69.33
2019-05-11T05:19:15.047Z,69.29
2019-05-11T05:20:23.098Z,69.02
2019-05-11T05:21:31.442Z,69.56
2019-05-11T05:22:39.477Z,69.68
2019-05-11T05:23:47.966Z,69.29
2019-05-11T05:24:56.148Z,69.21
2019-05-11T05:26:04.735Z,69.06
2019-05-11T05:27:12.936Z,68.95
2019-05-11T05:28:21.445Z,68.89
2019-05-11T05:29:29.729Z,68.76
2019-05-11T05:30:38.340Z,68.30
2019-05-11T05:31:46.381Z,68.89
2019-05-11T05:32:55.418Z,67.63
2019-05-11T05:34:03.772Z,67.77
2019-05-11T05:35:12.326Z,67.53
2019-05-11T05:36:20.669Z,67.21
2019-05-11T05:37:29.237Z,67.30
2019-05-11T05:38:37.276Z,67.15
2019-05-11T05:39:46.148Z,66.89
2019-05-11T05:40:54.548Z,66.94
2019-05-11T05:42:03.070Z,67.03
2019-05-11T05:43:25.577Z,66.50
2019-05-11T05:44:21.297Z,66.99
2019-05-11T05:45:29.597Z,66.29
2019-05-11T05:46:38.307Z,66.16
2019-05-11T05:47:46.215Z,65.84
2019-05-11T05:48:55.046Z,65.63
2019-05-11T05:50:03.498Z,64.98
2019-05-11T05:51:11.920Z,64.49
2019-05-11T05:52:20.742Z,63.69
2019-05-11T05:53:29.237Z,63.67
2019-05-11T05:54:37.252Z,63.26
2019-05-11T05:55:45.761Z,62.81
2019-05-11T05:56:54.088Z,62.78
2019-05-11T05:58:02.432Z,63.19
2019-05-11T05:59:10.409Z,63.03
2019-05-11T06:00:20.218Z,62.75
2019-05-11T06:01:28.487Z,61.96
2019-05-11T06:02:36.878Z,62.10
2019-05-11T06:03:45.085Z,62.72
2019-05-11T06:04:53.698Z,62.47
2019-05-11T06:06:01.671Z,62.18
2019-05-11T06:07:10.500Z,62.29
2019-05-11T06:08:19.027Z,62.85
2019-05-11T06:09:27.392Z,62.24
2019-05-11T06:10:35.643Z,61.54
2019-05-11T06:11:43.986Z,61.16
2019-05-11T06:12:52.131Z,61.84
2019-05-11T06:14:00.716Z,62.53
2019-05-11T06:15:09.962Z,61.36
2019-05-11T06:16:18.315Z,60.81
2019-05-11T06:17:26.743Z,60.92
2019-05-11T06:18:35.378Z,60.97
2019-05-11T06:19:43.448Z,60.49
2019-05-11T06:20:52.047Z,60.75
2019-05-11T06:22:00.227Z,60.73
2019-05-11T06:23:08.804Z,59.83
2019-05-11T06:24:16.855Z,60.52
2019-05-11T06:25:25.633Z,59.21
2019-05-11T06:26:33.598Z,58.63
2019-05-11T06:27:41.989Z,58.73
2019-05-11T06:28:50.298Z,59.02
2019-05-11T06:29:58.666Z,58.94
2019-05-11T06:31:06.952Z,59.41
2019-05-11T06:32:15.443Z,59.15
2019-05-11T06:33:23.513Z,59.79
2019-05-11T06:34:32.006Z,59.29
2019-05-11T06:35:39.976Z,59.72
2019-05-11T06:36:48.423Z,60.01
2019-05-11T06:37:56.724Z,60.17
2019-05-11T06:39:07.851Z,59.03
2019-05-11T06:40:15.963Z,58.75
2019-05-11T06:41:24.455Z,59.69
2019-05-11T06:42:32.374Z,59.08
2019-05-11T06:43:40.872Z,58.84
2019-05-11T06:44:48.824Z,58.68
2019-05-11T06:45:57.288Z,59.20
2019-05-11T06:47:05.566Z,59.21
2019-05-11T06:48:14.073Z,59.58
2019-05-11T06:49:22.286Z,58.62
2019-05-11T06:50:30.680Z,58.25
2019-05-11T06:51:40.566Z,58.04
2019-05-11T06:52:49.681Z,57.46
2019-05-11T06:53:57.648Z,58.49
2019-05-11T06:55:07.021Z,58.83
2019-05-11T06:56:14.955Z,58.75
2019-05-11T06:57:23.645Z,58.42
2019-05-11T06:58:31.558Z,58.31
2019-05-11T06:59:39.964Z,57.47
2019-05-11T07:00:48.165Z,57.44
2019-05-11T07:01:56.707Z,56.45
2019-05-11T07:03:04.817Z,55.39
2019-05-11T07:04:13.293Z,55.14
2019-05-11T07:05:21.503Z,54.91
2019-05-11T07:06:30.660Z,55.03
2019-05-11T07:07:47.641Z,55.35
2019-05-11T07:08:49.140Z,54.41
2019-05-11T07:09:57.504Z,55.09
2019-05-11T07:11:06.220Z,54.38
2019-05-11T07:12:14.420Z,53.88
2019-05-11T07:13:23.125Z,54.70
2019-05-11T07:14:31.257Z,54.12
2019-05-11T07:15:39.823Z,54.78
2019-05-11T07:16:47.946Z,53.56
2019-05-11T07:17:56.436Z,53.98
2019-05-11T07:19:04.667Z,54.73
2019-05-11T07:20:13.486Z,53.65
2019-05-11T07:21:21.563Z,52.22
2019-05-11T07:22:30.182Z,52.69
2019-05-11T07:23:38.100Z,52.42
2019-05-11T07:24:46.946Z,52.81
2019-05-11T07:25:55.202Z,52.68
2019-05-11T07:27:04.175Z,52.62
2019-05-11T07:28:12.198Z,52.95
2019-05-11T07:29:20.607Z,52.85
2019-05-11T07:30:28.929Z,52.64
2019-05-11T07:31:37.236Z,53.48
2019-05-11T07:32:47.920Z,52.47
2019-05-11T07:33:55.772Z,53.17
2019-05-11T07:35:04.752Z,52.27
2019-05-11T07:36:13.182Z,53.27
2019-05-11T07:37:24.086Z,52.34
2019-05-11T07:38:31.279Z,51.98
2019-05-11T07:39:39.614Z,52.72
2019-05-11T07:40:47.953Z,52.95
2019-05-11T07:41:58.381Z,52.55
2019-05-11T07:43:09.556Z,52.79
2019-05-11T07:44:16.062Z,52.86
2019-05-11T07:45:24.968Z,52.07
2019-05-11T07:46:34.362Z,51.77
2019-05-11T07:47:43.004Z,52.62
2019-05-11T07:48:51.273Z,52.72
2019-05-11T07:49:59.887Z,51.74
2019-05-11T07:51:08.927Z,51.84
2019-05-11T07:52:18.294Z,51.84
2019-05-11T07:53:27.948Z,51.52
2019-05-11T07:54:38.497Z,51.04
2019-05-11T07:55:48.483Z,50.54
2019-05-11T07:56:58.433Z,51.40
2019-05-11T07:58:08.040Z,49.78
2019-05-11T07:59:18.382Z,49.90
2019-05-11T08:00:28.039Z,49.18
2019-05-11T08:01:38.679Z,48.20
2019-05-11T08:02:47.975Z,48.35
2019-05-11T08:03:58.514Z,47.60
2019-05-11T08:05:08.664Z,47.66
2019-05-11T08:06:18.260Z,49.90
2019-05-11T08:07:28.551Z,47.66
2019-05-11T08:08:38.453Z,48.72
2019-05-11T08:09:48.335Z,47.90
2019-05-11T08:10:58.642Z,47.58
2019-05-11T08:12:08.969Z,46.98
2019-05-11T08:13:17.899Z,47.62
2019-05-11T08:14:28.585Z,46.24
2019-05-11T08:15:38.265Z,46.13
2019-05-11T08:16:48.030Z,46.53
2019-05-11T08:17:57.800Z,45.16
2019-05-11T08:19:08.125Z,46.59
2019-05-11T08:20:18.583Z,46.20
2019-05-11T08:21:28.357Z,45.28
2019-05-11T08:22:37.747Z,45.34
2019-05-11T08:23:48.111Z,45.60
2019-05-11T08:24:55.914Z,45.47
2019-05-11T08:26:04.123Z,45.60
2019-05-11T08:27:12.425Z,46.40
2019-05-11T08:28:20.597Z,46.31
2019-05-11T08:29:28.945Z,45.08
2019-05-11T08:30:38.145Z,45.46
2019-05-11T08:31:48.688Z,46.35
2019-05-11T08:32:58.269Z,45.15
2019-05-11T08:34:08.922Z,44.83
2019-05-11T08:35:17.892Z,45.10
2019-05-11T08:36:28.556Z,46.02
2019-05-11T08:37:36.078Z,45.74
2019-05-11T08:38:44.892Z,46.33
2019-05-11T08:39:53.157Z,46.00
2019-05-11T08:41:01.542Z,45.50
2019-05-11T08:42:09.695Z,45.76
2019-05-11T08:43:18.093Z,45.82
2019-05-11T08:44:28.553Z,45.58
2019-05-11T08:45:39.054Z,46.10
2019-05-11T08:46:47.865Z,45.98
2019-05-11T08:47:57.943Z,45.53
2019-05-11T08:49:08.448Z,44.24
2019-05-11T08:50:18.702Z,45.21
2019-05-11T08:51:28.010Z,43.62
2019-05-11T08:52:38.696Z,43.80
2019-05-11T08:53:48.022Z,43.77
2019-05-11T08:54:57.760Z,43.72
2019-05-11T08:56:06.104Z,43.49
2019-05-11T08:57:14.612Z,43.95
2019-05-11T08:58:23.062Z,44.35
2019-05-11T08:59:31.420Z,43.78
2019-05-11T09:00:39.780Z,43.78
2019-05-11T09:01:48.520Z,43.66
2019-05-11T09:02:58.296Z,43.87
2019-05-11T09:04:08.919Z,44.54
2019-05-11T09:05:18.747Z,44.03
2019-05-11T09:06:28.400Z,44.96
2019-05-11T09:07:38.426Z,42.85
2019-05-11T09:08:49.239Z,42.53
2019-05-11T09:09:58.625Z,43.74
2019-05-11T09:11:08.432Z,43.39
2019-05-11T09:12:18.327Z,42.43
2019-05-11T09:13:27.910Z,43.31
2019-05-11T09:14:38.544Z,43.17
2019-05-11T09:15:48.381Z,43.82
2019-05-11T09:16:57.776Z,43.45
2019-05-11T09:18:08.268Z,44.13
2019-05-11T09:19:17.649Z,43.21
2019-05-11T09:20:25.435Z,43.37
2019-05-11T09:21:33.421Z,43.21
2019-05-11T09:22:42.435Z,42.45
2019-05-11T09:23:51.894Z,43.23
2019-05-11T09:25:00.680Z,42.48
2019-05-11T09:26:08.976Z,43.16
2019-05-11T09:27:18.364Z,42.27
2019-05-11T09:28:29.319Z,41.90
2019-05-11T09:29:38.733Z,42.16
2019-05-11T09:30:48.330Z,41.71
2019-05-11T09:31:58.255Z,41.39
2019-05-11T09:33:08.566Z,41.49
2019-05-11T09:34:18.087Z,42.67
2019-05-11T09:35:29.028Z,41.30
2019-05-11T09:36:38.944Z,41.08
2019-05-11T09:37:54.008Z,40.89
2019-05-11T09:39:02.320Z,41.17
2019-05-11T09:40:10.567Z,41.83
2019-05-11T09:41:29.948Z,40.43
2019-05-11T09:42:41.083Z,40.24
2019-05-11T09:43:53.981Z,40.86
2019-05-11T09:45:08.302Z,39.27
2019-05-11T09:46:19.100Z,39.81
2019-05-11T09:47:34.931Z,39.18
2019-05-11T09:48:45.253Z,39.82
2019-05-11T09:50:17.953Z,39.95
2019-05-11T09:51:24.852Z,39.57
2019-05-11T09:52:32.875Z,39.78
2019-05-11T09:53:42.189Z,38.45
2019-05-11T09:54:50.186Z,37.33
2019-05-11T09:55:58.852Z,38.37
2019-05-11T09:57:08.334Z,34.20
2019-05-11T09:58:19.740Z,34.75
2019-05-11T09:59:29.829Z,36.16
2019-05-11T10:00:48.320Z,35.88
2019-05-11T10:01:58.738Z,35.58
2019-05-11T10:03:08.283Z,36.21
2019-05-11T10:04:18.055Z,35.78
2019-05-11T10:05:28.426Z,35.51
2019-05-11T10:06:36.068Z,36.83
2019-05-11T10:07:44.528Z,34.40
2019-05-11T10:08:52.591Z,33.67
2019-05-11T10:10:01.167Z,33.21
2019-05-11T10:11:09.144Z,30.50
2019-05-11T10:12:18.214Z,35.76
2019-05-11T10:13:27.883Z,30.27
2019-05-11T10:14:37.994Z,30.10
2019-05-11T10:16:01.006Z,28.07
2019-05-11T10:16:58.445Z,25.92
2019-05-11T10:18:08.180Z,26.05
2019-05-11T10:19:17.911Z,26.30
2019-05-11T10:20:28.474Z,24.17
2019-05-11T10:21:38.367Z,25.65
2019-05-11T10:22:45.904Z,24.22
2019-05-11T10:23:54.159Z,24.39
2019-05-11T10:25:02.229Z,24.67
2019-05-11T10:26:10.572Z,23.66
2019-05-11T10:27:19.018Z,23.09
2019-05-11T10:28:28.482Z,20.37
2019-05-11T10:29:38.272Z,20.25
2019-05-11T10:30:48.547Z,19.48
2019-05-11T10:31:58.477Z,19.72
2019-05-11T10:33:08.244Z,19.63
2019-05-11T10:34:17.912Z,19.12
2019-05-11T10:35:28.221Z,19.63
2019-05-11T10:36:38.516Z,17.61
2019-05-11T10:37:47.789Z,17.50
2019-05-11T10:38:58.664Z,17.33
2019-05-11T10:40:09.588Z,16.79
2019-05-11T10:41:18.333Z,16.02
2019-05-11T10:42:28.514Z,16.28
2019-05-11T10:43:38.022Z,16.98
2019-05-11T10:44:47.876Z,16.56
2019-05-11T10:45:58.632Z,17.09
2019-05-11T10:47:08.184Z,17.72
2019-05-11T10:48:17.753Z,16.31
2019-05-11T10:49:28.648Z,15.97
2019-05-11T10:50:38.041Z,17.46
2019-05-11T10:51:48.464Z,15.51
2019-05-11T10:52:55.730Z,14.83
2019-05-11T10:54:04.209Z,15.05
2019-05-11T10:55:12.626Z,15.16
2019-05-11T10:56:21.241Z,14.85
2019-05-11T10:57:29.519Z,15.11
2019-05-11T10:58:38.936Z,14.41
2019-05-11T10:59:48.830Z,14.62
2019-05-11T11:00:58.236Z,13.76
2019-05-11T11:02:08.035Z,14.34
2019-05-11T11:03:17.867Z,14.09
2019-05-11T11:04:28.592Z,13.79
2019-05-11T11:05:38.451Z,14.95
2019-05-11T11:06:48.488Z,13.60
2019-05-11T11:07:58.909Z,13.31
2019-05-11T11:09:10.043Z,14.26
2019-05-11T11:10:18.659Z,12.61
2019-05-11T11:11:27.827Z,12.77
2019-05-11T11:12:38.549Z,12.76
2019-05-11T11:13:48.059Z,12.02
2019-05-11T11:14:58.562Z,11.57
2019-05-11T11:16:08.211Z,11.96
2019-05-11T11:17:18.923Z,12.81
2019-05-11T11:18:28.231Z,12.67
2019-05-11T11:19:38.088Z,11.39
2019-05-11T11:20:48.676Z,10.66
2019-05-11T11:22:07.836Z,10.97
2019-05-11T11:23:14.042Z,12.42
2019-05-11T11:24:22.400Z,11.90
2019-05-11T11:25:30.572Z,12.71
2019-05-11T11:26:39.638Z,11.96
2019-05-11T11:27:48.742Z,11.62
2019-05-11T11:28:58.075Z,11.63
2019-05-11T11:30:09.430Z,10.79
2019-05-11T11:31:18.603Z,12.77
2019-05-11T11:32:28.314Z,13.65
2019-05-11T11:33:38.243Z,15.16
2019-05-11T11:34:48.356Z,14.11
2019-05-11T11:35:58.007Z,13.61
2019-05-11T11:37:08.233Z,14.20
2019-05-11T11:38:18.077Z,13.82
2019-05-11T11:39:28.254Z,14.07
2019-05-11T11:40:38.721Z,15.99
2019-05-11T11:41:48.590Z,17.25
2019-05-11T11:42:58.106Z,17.01
2019-05-11T11:44:07.915Z,16.72
2019-05-11T11:45:18.267Z,16.35
2019-05-11T11:46:27.757Z,15.13
2019-05-11T11:47:38.374Z,15.46
2019-05-11T11:48:45.974Z,14.21
2019-05-11T11:49:54.342Z,14.48
2019-05-11T11:51:02.378Z,13.29
2019-05-11T11:52:10.763Z,13.32
2019-05-11T11:53:18.982Z,13.56
2019-05-11T11:54:28.776Z,13.57
2019-05-11T11:55:38.854Z,12.51
2019-05-11T11:56:48.494Z,11.75
2019-05-11T11:57:58.849Z,13.12
2019-05-11T11:59:08.562Z,13.31
2019-05-11T12:00:18.279Z,13.54
2019-05-11T12:01:28.090Z,12.05
2019-05-11T12:02:38.579Z,12.46
2019-05-11T12:03:48.488Z,11.79
2019-05-11T12:04:57.695Z,12.27
2019-05-11T12:06:06.000Z,12.14
2019-05-11T12:07:14.048Z,11.58
2019-05-11T12:08:22.519Z,10.06
2019-05-11T12:09:31.361Z,9.27
2019-05-11T12:10:40.309Z,10.23
2019-05-11T12:11:48.763Z,10.32
2019-05-11T12:12:58.141Z,10.58
2019-05-11T12:14:08.764Z,9.47
2019-05-11T12:15:19.638Z,10.61
2019-05-11T12:16:28.189Z,10.26
2019-05-11T12:17:38.383Z,10.30
2019-05-11T12:18:48.406Z,11.01
2019-05-11T12:19:58.418Z,11.68
2019-05-11T12:21:07.968Z,11.40
2019-05-11T12:22:18.694Z,11.52
2019-05-11T12:23:28.341Z,10.99
2019-05-11T12:24:37.548Z,10.99
2019-05-11T12:25:48.451Z,10.98
2019-05-11T12:26:58.530Z,10.76
2019-05-11T12:28:08.038Z,10.84
2019-05-11T12:29:18.738Z,10.37
2019-05-11T12:30:28.509Z,10.15
2019-05-11T12:31:37.928Z,9.63
2019-05-11T12:32:48.709Z,10.56
2019-05-11T12:33:58.603Z,11.55
2019-05-11T12:35:09.044Z,10.79
2019-05-11T12:36:18.825Z,10.76
2019-05-11T12:37:28.336Z,9.97
2019-05-11T12:38:38.215Z,10.83
2019-05-11T12:39:47.877Z,12.94
2019-05-11T12:40:57.945Z,12.47
2019-05-11T12:42:08.500Z,11.98
2019-05-11T12:43:18.634Z,11.13
2019-05-11T12:44:28.159Z,11.41
2019-05-11T12:45:37.628Z,11.38
2019-05-11T12:46:48.619Z,11.10
2019-05-11T12:47:58.697Z,10.93
2019-05-11T12:49:07.814Z,10.70
2019-05-11T12:50:18.666Z,10.00
2019-05-11T12:51:27.658Z,9.83
2019-05-11T12:52:38.121Z,10.95
2019-05-11T12:53:47.623Z,9.94
2019-05-11T12:54:58.357Z,10.56
2019-05-11T12:56:08.267Z,10.30
2019-05-11T12:57:18.707Z,10.62
2019-05-11T12:58:28.069Z,10.60
2019-05-11T12:59:38.112Z,11.06
2019-05-11T13:00:48.013Z,11.18
2019-05-11T13:01:58.828Z,10.98
2019-05-11T13:03:08.074Z,10.64
2019-05-11T13:04:18.172Z,11.21
2019-05-11T13:05:28.540Z,10.25
2019-05-11T13:06:38.749Z,10.27
2019-05-11T13:07:48.087Z,9.18
2019-05-11T13:08:58.738Z,9.70
2019-05-11T13:10:08.687Z,9.70
2019-05-11T13:11:18.722Z,9.51
2019-05-11T13:12:27.940Z,9.65
2019-05-11T13:13:37.767Z,8.95
2019-05-11T13:14:46.010Z,9.65
2019-05-11T13:15:54.963Z,10.81
2019-05-11T13:17:02.741Z,11.37
2019-05-11T13:18:11.493Z,11.63
2019-05-11T13:19:19.791Z,13.01
2019-05-11T13:20:28.798Z,13.77
2019-05-11T13:21:38.273Z,14.37
2019-05-11T13:22:48.837Z,15.40
2019-05-11T13:23:57.706Z,14.74
2019-05-11T13:25:08.677Z,13.24
2019-05-11T13:26:18.003Z,13.46
2019-05-11T13:27:28.360Z,13.16
2019-05-11T13:28:37.782Z,14.49
2019-05-11T13:29:48.541Z,15.36
2019-05-11T13:30:58.029Z,16.09
2019-05-11T13:32:07.873Z,14.89
2019-05-11T13:33:16.092Z,15.55
2019-05-11T13:34:24.660Z,15.02
2019-05-11T13:35:32.793Z,14.94
2019-05-11T13:36:40.976Z,14.33
2019-05-11T13:37:49.395Z,13.67
2019-05-11T13:38:58.730Z,13.64
2019-05-11T13:40:09.562Z,15.04
2019-05-11T13:41:18.746Z,14.38
2019-05-11T13:42:27.743Z,14.14
2019-05-11T13:43:38.492Z,12.34
2019-05-11T13:44:47.816Z,12.64
2019-05-11T13:45:58.412Z,12.67
2019-05-11T13:47:08.442Z,11.56
2019-05-11T13:48:17.692Z,13.02
2019-05-11T13:49:28.323Z,14.43
2019-05-11T13:50:38.459Z,12.91
2019-05-11T13:51:48.049Z,12.45
2019-05-11T13:52:58.225Z,13.55
2019-05-11T13:54:07.937Z,12.26
2019-05-11T13:55:18.168Z,12.66
2019-05-11T13:56:28.118Z,13.05
2019-05-11T13:57:38.036Z,13.46
2019-05-11T13:58:48.850Z,13.20
2019-05-11T13:59:57.945Z,13.52
2019-05-11T14:01:08.116Z,13.53
2019-05-11T14:02:18.045Z,13.65
2019-05-11T14:03:27.700Z,13.54
2019-05-11T14:04:38.525Z,13.84
2019-05-11T14:05:48.298Z,13.10
2019-05-11T14:06:58.573Z,13.56
2019-05-11T14:08:08.123Z,13.54
2019-05-11T14:09:18.468Z,13.39
2019-05-11T14:10:28.292Z,13.33
2019-05-11T14:11:39.011Z,13.15
2019-05-11T14:12:47.676Z,13.94
2019-05-11T14:13:58.513Z,14.11
2019-05-11T14:15:10.577Z,14.88
2019-05-11T14:16:19.163Z,14.86
2019-05-11T14:17:31.216Z,14.84
2019-05-11T14:18:38.658Z,15.06
2019-05-11T14:19:49.177Z,15.00
2019-05-11T14:20:58.607Z,14.88
2019-05-11T14:22:08.681Z,14.99
2019-05-11T14:23:18.296Z,14.85
2019-05-11T14:24:28.801Z,14.98
2019-05-11T14:25:38.121Z,15.07
2019-05-11T14:26:48.817Z,15.65
2019-05-11T14:27:59.372Z,15.71
2019-05-11T14:29:08.468Z,15.40
2019-05-11T14:30:19.163Z,15.61
2019-05-11T14:31:28.370Z,15.61
2019-05-11T14:32:38.888Z,15.62
2019-05-11T14:33:48.688Z,15.35
2019-05-11T14:34:57.794Z,15.61
2019-05-11T14:36:08.375Z,15.62
2019-05-11T14:37:18.106Z,15.47
2019-05-11T14:38:25.908Z,15.67
2019-05-11T14:39:34.305Z,15.49
2019-05-11T14:40:42.467Z,15.84
2019-05-11T14:41:52.237Z,16.35
2019-05-11T14:43:00.745Z,16.48
2019-05-11T14:44:09.234Z,16.97
2019-05-11T14:45:18.689Z,17.02
2019-05-11T14:46:27.941Z,17.11
2019-05-11T14:47:38.395Z,17.59
2019-05-11T14:48:48.165Z,17.65
2019-05-11T14:49:57.857Z,17.67
2019-05-11T14:51:08.563Z,17.48